Time;durP1;ratioP1;P1;durP2;ratioP2;P2;SDS_P1;SDS_P2;PMS_P1;PMS_P2;Temp;Humidity;BMP_temperature;BMP_pressure;BME280_temperature;BME280_humidity;BME280_pressure;Samples;Min_cycle;Max_cycle;Signal;HPM_P1;HPM_P2
2022/05/30 00:00:56;;;;;;;0.90;0.90;;;20.50;55.40;;;;;;5058049;28;20190;-70
2022/05/30 00:03:22;;;;;;;0.90;0.68;;;20.50;55.40;;;;;;5075275;28;20192;-70
2022/05/30 00:05:50;;;;;;;0.80;0.80;;;20.40;55.40;;;;;;5058858;28;20206;-70
2022/05/30 00:08:18;;;;;;;0.82;0.80;;;20.50;55.50;;;;;;5076778;28;20178;-70
2022/05/30 00:10:45;;;;;;;1.02;0.93;;;20.50;55.40;;;;;;5077548;28;20209;-70
2022/05/30 00:13:12;;;;;;;1.30;0.90;;;20.50;55.40;;;;;;5076612;28;20181;-70
2022/05/30 00:15:39;;;;;;;1.27;0.90;;;20.50;55.50;;;;;;5075814;28;20687;-70
2022/05/30 00:18:04;;;;;;;1.35;0.88;;;20.40;55.40;;;;;;5058360;28;20188;-70
2022/05/30 00:20:30;;;;;;;1.10;1.00;;;20.40;55.40;;;;;;5058421;28;20189;-71
2022/05/30 00:22:56;;;;;;;1.58;0.80;;;20.40;56.00;;;;;;5059195;28;20280;-70
2022/05/30 00:25:22;;;;;;;0.98;0.93;;;20.50;55.40;;;;;;5058191;28;20205;-70
2022/05/30 00:27:48;;;;;;;0.93;0.82;;;20.40;55.40;;;;;;5058928;28;20212;-70
2022/05/30 00:30:15;;;;;;;1.92;1.40;;;20.40;55.40;;;;;;5058473;28;20325;-70
2022/05/30 00:32:42;;;;;;;1.40;0.95;;;20.50;55.50;;;;;;5059211;28;20221;-70
2022/05/30 00:35:10;;;;;;;1.75;1.10;;;20.40;55.30;;;;;;5059281;28;20186;-70
2022/05/30 00:37:36;;;;;;;1.02;1.02;;;20.40;55.40;;;;;;5058995;28;20206;-70
2022/05/30 00:40:03;;;;;;;0.90;0.90;;;20.40;55.40;;;;;;5075333;28;20181;-70
2022/05/30 00:42:31;;;;;;;0.85;0.85;;;20.40;55.40;;;;;;5075832;28;20327;-70
2022/05/30 00:44:57;;;;;;;0.80;0.80;;;20.40;55.30;;;;;;5056874;28;20214;-70
2022/05/30 00:47:25;;;;;;;1.77;1.02;;;20.40;55.30;;;;;;5056807;28;20573;-70
2022/05/30 00:49:54;;;;;;;0.82;0.70;;;20.40;55.40;;;;;;5075006;28;20173;-70
2022/05/30 00:52:32;;;;;;;0.80;0.63;;;20.40;55.40;;;;;;5074683;28;20192;-70
2022/05/30 00:55:07;;;;;;;1.35;1.20;;;20.40;55.30;;;;;;5057725;28;20243;-70
2022/05/30 00:57:34;;;;;;;1.23;0.70;;;20.40;55.40;;;;;;5073563;28;20201;-70
2022/05/30 01:00:24;;;;;;;0.90;0.90;;;20.40;55.40;;;;;;5056150;28;20576;-70
2022/05/30 01:08:30;;;;;;;0.88;0.88;;;20.40;55.40;;;;;;5073343;28;20181;-70
2022/05/30 01:10:57;;;;;;;1.27;0.93;;;20.40;55.30;;;;;;5056735;28;20181;-70
2022/05/30 01:13:24;;;;;;;2.08;0.90;;;20.40;55.40;;;;;;5073289;28;20200;-70
2022/05/30 01:15:51;;;;;;;0.70;0.70;;;20.40;55.40;;;;;;5072919;28;20732;-70
2022/05/30 01:18:25;;;;;;;1.13;0.70;;;20.40;55.30;;;;;;5056318;28;20190;-70
2022/05/30 01:21:15;;;;;;;0.90;0.75;;;20.40;55.30;;;;;;5090497;28;20174;-70
2022/05/30 01:24:14;;;;;;;1.10;1.00;;;20.40;55.30;;;;;;5056357;28;20228;-70
2022/05/30 01:27:17;;;;;;;1.05;0.88;;;20.40;55.20;;;;;;5073599;28;20221;-70
2022/05/30 01:29:54;;;;;;;0.70;0.70;;;20.40;55.30;;;;;;5073511;28;20261;-70
2022/05/30 01:32:23;;;;;;;0.80;0.80;;;20.40;55.30;;;;;;5057562;28;20239;-70
2022/05/30 01:34:50;;;;;;;0.90;0.68;;;20.40;55.30;;;;;;5074171;28;20775;-70
2022/05/30 01:37:19;;;;;;;0.73;0.73;;;20.40;55.30;;;;;;5057481;28;20210;-70
2022/05/30 01:39:44;;;;;;;0.70;0.70;;;20.40;55.90;;;;;;5073474;28;20215;-70
2022/05/30 01:42:13;;;;;;;1.00;1.00;;;20.40;55.30;;;;;;5074005;28;20182;-70
2022/05/30 01:44:43;;;;;;;0.80;0.80;;;20.40;55.30;;;;;;5073701;28;20198;-70
2022/05/30 01:47:10;;;;;;;1.08;0.70;;;20.40;55.30;;;;;;5073212;28;20204;-70
2022/05/30 01:49:36;;;;;;;2.00;1.13;;;20.40;55.30;;;;;;5073466;28;20182;-70
2022/05/30 01:52:03;;;;;;;1.85;1.10;;;20.40;55.30;;;;;;5073371;28;20177;-70
2022/05/30 01:54:28;;;;;;;1.13;1.00;;;20.40;55.20;;;;;;5073408;28;20217;-70
2022/05/30 01:57:13;;;;;;;0.98;0.93;;;20.40;55.20;;;;;;5072863;28;20212;-70
2022/05/30 01:59:54;;;;;;;0.70;0.70;;;20.40;55.30;;;;;;5078137;28;20181;-70
2022/05/30 02:02:42;;;;;;;1.20;0.98;;;20.40;55.30;;;;;;5077506;28;20204;-70
2022/05/30 02:05:10;;;;;;;0.90;0.80;;;20.40;55.30;;;;;;5059914;28;20209;-70
2022/05/30 02:07:36;;;;;;;0.80;0.80;;;20.40;55.30;;;;;;5076427;28;20209;-70
2022/05/30 02:10:04;;;;;;;0.88;0.88;;;20.40;55.30;;;;;;5076583;28;20185;-70
2022/05/30 02:12:33;;;;;;;0.80;0.80;;;20.40;55.20;;;;;;5077113;28;20241;-70
2022/05/30 02:15:07;;;;;;;0.80;0.80;;;20.40;55.20;;;;;;5076312;28;20182;-70
2022/05/30 02:17:35;;;;;;;1.10;0.85;;;20.40;55.20;;;;;;5077866;28;20246;-70
2022/05/30 02:20:01;;;;;;;1.25;1.08;;;20.40;55.20;;;;;;5060329;28;20170;-70
2022/05/30 02:22:29;;;;;;;1.17;0.80;;;20.40;55.20;;;;;;5077305;28;20181;-70
2022/05/30 02:24:56;;;;;;;0.88;0.88;;;20.40;55.20;;;;;;5060249;28;20327;-70
2022/05/30 02:27:23;;;;;;;1.50;1.00;;;20.40;55.10;;;;;;5060489;28;20201;-70
2022/05/30 02:29:49;;;;;;;0.93;0.82;;;20.30;55.10;;;;;;5076840;28;20182;-70
2022/05/30 02:32:20;;;;;;;0.90;0.80;;;20.30;55.10;;;;;;5061164;28;20208;-70
2022/05/30 02:37:31;;;;;;;0.70;0.70;;;20.30;55.10;;;;;;5076599;28;20205;-70
2022/05/30 02:40:05;;;;;;;0.80;0.80;;;20.30;55.10;;;;;;5060356;28;20182;-70
2022/05/30 02:42:54;;;;;;;0.60;0.60;;;20.30;55.20;;;;;;5076332;28;20197;-70
2022/05/30 02:45:20;;;;;;;0.80;0.80;;;20.40;55.20;;;;;;5059658;28;20227;-69
2022/05/30 02:47:46;;;;;;;1.35;0.82;;;20.40;55.20;;;;;;5070987;28;20196;-70
2022/05/30 02:50:16;;;;;;;1.00;0.80;;;20.30;55.20;;;;;;5096926;28;20212;-70
2022/05/30 02:52:42;;;;;;;1.15;0.98;;;20.30;55.70;;;;;;5078627;28;20173;-70
2022/05/30 02:55:15;;;;;;;1.10;0.85;;;20.40;55.20;;;;;;5095982;28;20185;-70
2022/05/30 02:57:50;;;;;;;0.77;0.73;;;20.30;55.00;;;;;;5094296;28;20208;-70
2022/05/30 03:00:18;;;;;;;1.40;0.93;;;20.30;55.00;;;;;;5095654;28;20227;-70
2022/05/30 03:02:48;;;;;;;0.90;0.90;;;20.30;55.10;;;;;;5095652;28;20268;-70
2022/05/30 03:05:14;;;;;;;1.23;0.90;;;20.30;55.00;;;;;;5096483;28;20216;-70
2022/05/30 03:07:40;;;;;;;0.70;0.70;;;20.30;55.10;;;;;;5097501;28;20201;-70
2022/05/30 03:10:24;;;;;;;0.70;0.70;;;20.30;55.00;;;;;;5082920;28;20189;-70
2022/05/30 03:12:56;;;;;;;0.80;0.80;;;20.30;55.10;;;;;;5081329;28;20218;-71
2022/05/30 03:15:22;;;;;;;0.70;0.70;;;20.30;55.10;;;;;;5079796;28;20177;-70
2022/05/30 03:17:51;;;;;;;0.95;0.70;;;20.30;55.10;;;;;;5095488;28;20204;-70
2022/05/30 03:20:20;;;;;;;0.88;0.88;;;20.30;55.10;;;;;;5079118;28;20216;-70
2022/05/30 03:22:47;;;;;;;0.93;0.73;;;20.30;55.00;;;;;;5095731;28;20204;-70
2022/05/30 03:25:20;;;;;;;0.80;0.80;;;20.40;55.10;;;;;;5096537;28;20205;-70
2022/05/30 03:27:52;;;;;;;1.98;1.00;;;20.30;55.00;;;;;;5077028;28;20204;-70
2022/05/30 03:30:18;;;;;;;0.93;0.82;;;20.40;55.10;;;;;;5093699;28;20181;-70
2022/05/30 03:32:45;;;;;;;1.13;1.00;;;20.30;55.00;;;;;;5094237;28;20221;-70
2022/05/30 03:35:12;;;;;;;1.10;1.00;;;20.40;55.10;;;;;;5094099;28;20216;-70
2022/05/30 03:37:44;;;;;;;0.88;0.88;;;20.30;55.00;;;;;;5094577;28;20287;-70
2022/05/30 03:40:26;;;;;;;0.73;0.73;;;20.30;54.90;;;;;;5095237;28;20230;-71
2022/05/30 03:43:18;;;;;;;1.10;1.00;;;20.30;55.00;;;;;;5071779;28;20342;-70
2022/05/30 03:45:44;;;;;;;0.85;0.85;;;20.30;55.00;;;;;;5095345;28;20232;-70
2022/05/30 03:48:14;;;;;;;0.95;0.90;;;20.30;55.00;;;;;;5095203;28;20188;-70
2022/05/30 03:50:42;;;;;;;1.42;0.88;;;20.40;55.10;;;;;;5096285;28;20721;-70
2022/05/30 03:53:08;;;;;;;1.25;0.80;;;20.40;55.10;;;;;;5095481;28;20169;-71
2022/05/30 03:55:42;;;;;;;0.98;0.77;;;20.30;55.00;;;;;;5077971;28;20181;-70
2022/05/30 03:58:11;;;;;;;1.00;0.90;;;20.30;55.00;;;;;;5094423;28;20196;-70
2022/05/30 04:00:41;;;;;;;0.95;0.80;;;20.30;54.90;;;;;;5094190;28;20195;-70
2022/05/30 04:03:08;;;;;;;1.30;1.05;;;20.30;55.00;;;;;;5077205;28;20176;-70
2022/05/30 04:05:34;;;;;;;0.93;0.93;;;20.30;54.90;;;;;;5094801;28;20223;-70
2022/05/30 04:08:01;;;;;;;1.15;0.95;;;20.30;55.00;;;;;;5094786;28;20287;-70
2022/05/30 04:10:33;;;;;;;1.10;0.90;;;20.40;55.10;;;;;;5095669;28;20180;-70
2022/05/30 04:13:19;;;;;;;1.00;0.90;;;20.30;54.90;;;;;;5095310;28;20248;-70
2022/05/30 04:16:13;;;;;;;0.70;0.70;;;20.30;55.00;;;;;;5094488;28;20223;-70
2022/05/30 04:18:41;;;;;;;1.27;0.90;;;20.30;55.00;;;;;;5094940;28;20215;-70
2022/05/30 04:21:10;;;;;;;0.93;0.90;;;20.30;55.00;;;;;;5112914;28;20184;-70
2022/05/30 04:23:38;;;;;;;0.80;0.80;;;20.30;55.00;;;;;;5078908;28;20230;-70
2022/05/30 04:26:12;;;;;;;1.13;1.13;;;20.40;55.10;;;;;;5095012;28;20245;-70
2022/05/30 04:28:42;;;;;;;1.05;0.90;;;20.30;55.00;;;;;;5095567;28;20200;-70
2022/05/30 04:31:26;;;;;;;1.92;1.15;;;20.30;55.10;;;;;;5082220;28;20264;-69
2022/05/30 04:33:53;;;;;;;2.47;0.93;;;20.30;55.20;;;;;;5094816;28;20176;-70
2022/05/30 04:36:19;;;;;;;2.33;0.90;;;20.30;55.20;;;;;;5078983;28;20196;-70
2022/05/30 04:38:50;;;;;;;2.38;0.70;;;20.30;55.30;;;;;;5079393;28;20185;-70
2022/05/30 04:41:42;;;;;;;2.05;1.10;;;20.30;55.50;;;;;;5072639;28;20196;-71
2022/05/30 04:44:28;;;;;;;2.28;0.60;;;20.30;55.50;;;;;;5053064;28;20193;-70
2022/05/30 04:47:14;;;;;;;2.70;1.00;;;20.40;55.60;;;;;;5094616;28;20209;-70
2022/05/30 04:49:47;;;;;;;0.90;0.90;;;20.40;55.70;;;;;;5079666;28;20168;-70
2022/05/30 04:52:14;;;;;;;0.98;0.90;;;20.40;55.70;;;;;;5096521;28;20181;-70
2022/05/30 04:54:40;;;;;;;1.98;1.08;;;20.30;55.60;;;;;;5080098;28;20192;-70
2022/05/30 04:57:25;;;;;;;1.02;0.63;;;20.40;55.70;;;;;;5092399;28;20281;-71
2022/05/30 05:00:16;;;;;;;0.75;0.68;;;20.40;55.40;;;;;;5092993;28;20193;-71
2022/05/30 05:02:44;;;;;;;0.85;0.77;;;20.30;55.40;;;;;;5091820;28;20228;-71
2022/05/30 05:05:10;;;;;;;2.17;0.80;;;20.30;55.40;;;;;;5075373;28;20227;-71
2022/05/30 05:08:04;;;;;;;0.80;0.80;;;20.30;55.30;;;;;;5092135;28;20332;-71
2022/05/30 05:10:59;;;;;;;0.93;0.82;;;20.30;55.40;;;;;;5092666;28;20259;-71
2022/05/30 05:13:49;;;;;;;0.93;0.73;;;20.30;55.30;;;;;;5057539;28;20212;-71
2022/05/30 05:16:50;;;;;;;1.60;0.80;;;20.30;55.30;;;;;;5092932;28;20262;-71
2022/05/30 05:19:16;;;;;;;0.80;0.70;;;20.30;55.30;;;;;;5073942;28;20177;-71
2022/05/30 05:21:45;;;;;;;1.25;0.90;;;20.30;55.20;;;;;;5092005;28;20177;-71
2022/05/30 05:24:13;;;;;;;1.45;0.75;;;20.30;55.20;;;;;;5090943;28;20181;-71
2022/05/30 05:26:59;;;;;;;2.58;1.10;;;20.30;55.20;;;;;;5090759;28;20281;-71
2022/05/30 05:29:25;;;;;;;1.77;1.02;;;20.30;55.20;;;;;;5090694;28;20215;-70
2022/05/30 05:31:51;;;;;;;0.95;0.88;;;20.30;55.10;;;;;;5090918;28;20189;-71
2022/05/30 05:34:17;;;;;;;2.20;1.13;;;20.20;55.00;;;;;;5076751;28;20212;-70
2022/05/30 05:36:47;;;;;;;2.13;0.95;;;20.30;55.10;;;;;;5094571;28;20213;-71
2022/05/30 05:39:15;;;;;;;1.15;1.08;;;20.20;55.00;;;;;;5077926;28;20209;-71
2022/05/30 05:41:47;;;;;;;0.90;0.90;;;20.20;55.00;;;;;;5094880;28;20188;-70
2022/05/30 05:44:16;;;;;;;0.77;0.77;;;20.20;55.00;;;;;;5094579;28;20224;-71
2022/05/30 05:46:43;;;;;;;0.98;0.95;;;20.30;55.00;;;;;;5095581;28;20216;-70
2022/05/30 05:49:09;;;;;;;1.15;1.05;;;20.30;55.70;;;;;;5094730;28;20267;-70
2022/05/30 05:51:36;;;;;;;1.25;1.10;;;20.20;55.00;;;;;;5092685;28;20591;-71
2022/05/30 05:54:07;;;;;;;1.35;1.10;;;20.30;55.00;;;;;;5074752;28;20193;-71
2022/05/30 05:56:34;;;;;;;1.20;1.10;;;20.30;55.00;;;;;;5073780;28;20205;-70
2022/05/30 05:59:04;;;;;;;0.63;0.63;;;20.30;54.90;;;;;;5074087;28;20665;-70
2022/05/30 06:01:33;;;;;;;1.90;1.13;;;20.30;55.00;;;;;;5074377;28;20688;-70
2022/05/30 06:04:04;;;;;;;2.00;1.20;;;20.30;54.90;;;;;;5057668;28;20186;-71
2022/05/30 06:06:45;;;;;;;1.27;1.08;;;20.30;54.90;;;;;;5092880;28;20235;-71
2022/05/30 06:09:16;;;;;;;2.20;0.95;;;20.30;54.90;;;;;;5078148;28;20201;-70
2022/05/30 06:11:48;;;;;;;1.13;1.05;;;20.30;54.90;;;;;;5078616;28;20177;-71
2022/05/30 06:14:14;;;;;;;1.27;1.00;;;20.30;54.90;;;;;;5078076;28;20210;-70
2022/05/30 06:16:41;;;;;;;1.45;1.20;;;20.30;54.90;;;;;;5094262;28;20201;-71
2022/05/30 06:19:12;;;;;;;1.42;0.95;;;20.30;54.90;;;;;;5094124;28;20275;-71
2022/05/30 06:21:39;;;;;;;2.17;1.20;;;20.30;54.90;;;;;;5077219;28;20185;-71
2022/05/30 06:24:06;;;;;;;1.77;0.90;;;20.30;54.80;;;;;;5077118;28;20211;-71
2022/05/30 06:26:50;;;;;;;1.15;0.82;;;20.30;54.80;;;;;;5095030;28;20298;-70
2022/05/30 06:29:28;;;;;;;1.58;1.10;;;20.30;54.80;;;;;;5094435;28;20668;-71
2022/05/30 06:31:55;;;;;;;1.13;1.00;;;20.30;54.80;;;;;;5077285;28;20185;-71
2022/05/30 06:34:21;;;;;;;0.80;0.80;;;20.30;54.70;;;;;;5093860;28;20202;-70
2022/05/30 06:36:47;;;;;;;1.08;0.98;;;20.30;54.70;;;;;;5093299;28;20197;-71
2022/05/30 06:39:14;;;;;;;1.25;1.10;;;20.30;54.70;;;;;;5070062;28;20181;-71
2022/05/30 06:41:51;;;;;;;1.23;1.13;;;20.30;54.70;;;;;;5073224;28;20188;-71
2022/05/30 06:44:17;;;;;;;2.08;0.90;;;20.30;54.70;;;;;;5089487;28;20189;-70
2022/05/30 06:47:10;;;;;;;1.17;0.80;;;20.30;54.60;;;;;;5074317;28;20219;-70
2022/05/30 06:49:54;;;;;;;1.70;0.98;;;20.30;54.70;;;;;;5074492;28;20340;-70
2022/05/30 06:52:24;;;;;;;2.25;0.90;;;20.30;55.20;;;;;;5073239;28;20182;-71
2022/05/30 06:54:50;;;;;;;1.00;0.90;;;20.30;54.70;;;;;;5073257;28;20238;-71
2022/05/30 07:00:01;;;;;;;0.80;0.80;;;20.30;54.60;;;;;;5059206;28;20189;-70
2022/05/30 07:02:29;;;;;;;1.08;0.95;;;20.30;54.50;;;;;;5073480;28;20177;-70
2022/05/30 07:05:25;;;;;;;0.98;0.73;;;20.30;54.60;;;;;;5019360;28;20749;-70
2022/05/30 07:08:17;;;;;;;1.02;0.90;;;20.30;54.60;;;;;;5057959;28;20283;-71
2022/05/30 07:11:02;;;;;;;1.02;0.90;;;20.40;54.60;;;;;;5073139;28;20269;-71
2022/05/30 07:13:30;;;;;;;1.33;0.80;;;20.40;54.60;;;;;;5056487;28;20182;-71
2022/05/30 07:15:56;;;;;;;1.38;0.95;;;20.30;54.50;;;;;;5072437;28;20244;-70
2022/05/30 07:18:27;;;;;;;0.88;0.88;;;20.40;54.60;;;;;;5072805;28;20189;-70
2022/05/30 07:21:00;;;;;;;0.80;0.80;;;20.40;54.60;;;;;;5072738;28;20204;-71
2022/05/30 07:23:31;;;;;;;0.70;0.70;;;20.30;54.50;;;;;;5072534;28;20573;-70
2022/05/30 07:26:20;;;;;;;0.85;0.85;;;20.30;54.40;;;;;;5073501;28;20298;-71
2022/05/30 07:29:06;;;;;;;1.15;0.93;;;20.40;54.50;;;;;;5074122;28;20579;-71
2022/05/30 07:31:50;;;;;;;1.08;0.80;;;20.40;54.40;;;;;;5073692;28;20236;-70
2022/05/30 07:34:37;;;;;;;0.73;0.73;;;20.40;54.40;;;;;;5072903;28;20220;-71
2022/05/30 07:37:21;;;;;;;1.30;0.90;;;20.40;54.40;;;;;;5086805;28;20217;-70
2022/05/30 07:40:11;;;;;;;1.33;0.98;;;20.40;54.40;;;;;;5061549;28;20304;-71
2022/05/30 07:42:49;;;;;;;2.35;1.00;;;20.40;54.30;;;;;;5072187;28;20181;-71
2022/05/30 07:45:26;;;;;;;0.93;0.70;;;20.40;54.30;;;;;;5072182;28;20209;-71
2022/05/30 07:48:27;;;;;;;2.03;0.95;;;20.40;54.20;;;;;;5031102;28;20198;-71
2022/05/30 07:51:16;;;;;;;0.98;0.75;;;20.50;54.30;;;;;;5043178;28;20205;-70
2022/05/30 07:53:58;;;;;;;1.30;1.00;;;20.50;54.20;;;;;;5081014;28;20161;-70
2022/05/30 07:56:31;;;;;;;1.38;1.15;;;20.50;54.20;;;;;;5092197;28;20207;-70
2022/05/30 07:58:57;;;;;;;1.38;0.90;;;20.50;54.10;;;;;;5075436;28;20292;-70
2022/05/30 08:01:24;;;;;;;1.10;0.82;;;20.50;54.00;;;;;;5075100;28;20305;-70
2022/05/30 08:03:51;;;;;;;2.15;1.10;;;20.50;54.00;;;;;;5075619;28;20188;-71
2022/05/30 08:06:35;;;;;;;3.38;0.85;;;20.60;54.10;;;;;;5092891;28;20601;-71
2022/05/30 08:09:27;;;;;;;1.40;1.02;;;20.60;54.10;;;;;;5095326;28;20196;-70
2022/05/30 08:12:13;;;;;;;0.80;0.80;;;20.60;54.00;;;;;;5092454;28;20717;-71
2022/05/30 08:14:55;;;;;;;1.17;0.90;;;20.60;53.90;;;;;;5093122;28;20283;-70
2022/05/30 08:17:23;;;;;;;1.00;0.90;;;20.60;53.90;;;;;;5074802;28;20244;-70
2022/05/30 08:19:50;;;;;;;1.75;0.80;;;20.60;53.70;;;;;;5075112;28;20216;-70
2022/05/30 08:22:22;;;;;;;1.80;0.90;;;20.60;53.80;;;;;;5076091;28;20649;-71
2022/05/30 08:24:50;;;;;;;1.08;0.82;;;20.60;53.90;;;;;;5082408;28;20231;-71
2022/05/30 08:27:19;;;;;;;1.77;1.20;;;20.60;53.80;;;;;;5091307;28;20257;-71
2022/05/30 08:29:56;;;;;;;0.65;0.65;;;20.60;53.80;;;;;;5071604;28;20242;-71
2022/05/30 08:32:23;;;;;;;1.00;0.90;;;20.60;53.80;;;;;;5089177;28;20645;-71
2022/05/30 08:35:19;;;;;;;0.93;0.80;;;20.60;53.80;;;;;;5092023;28;20184;-70
2022/05/30 08:37:46;;;;;;;1.80;1.05;;;20.60;53.70;;;;;;5092074;28;20288;-70
2022/05/30 08:43:41;;;;;;;0.80;0.80;;;20.70;53.80;;;;;;5091774;28;20180;-70
2022/05/30 08:46:56;;;;;;;0.70;0.70;;;20.60;53.60;;;;;;5092152;28;20251;-70
2022/05/30 08:49:34;;;;;;;1.33;1.10;;;20.60;53.80;;;;;;5075245;28;20558;-71
2022/05/30 08:52:32;;;;;;;0.80;0.80;;;20.60;53.80;;;;;;5074731;28;20564;-70
2022/05/30 08:55:26;;;;;;;1.10;1.00;;;20.70;53.70;;;;;;5052938;28;20203;-71
2022/05/30 08:58:45;;;;;;;1.08;0.77;;;20.70;53.50;;;;;;5091266;28;20204;-71
2022/05/30 09:01:37;;;;;;;2.40;0.90;;;20.70;53.40;;;;;;5091442;28;20211;-71
2022/05/30 09:05:10;;;;;;;0.80;0.80;;;20.70;53.40;;;;;;5087423;28;20249;-71
2022/05/30 09:07:54;;;;;;;1.73;0.90;;;20.70;53.40;;;;;;4997421;28;20219;-71
2022/05/30 09:10:33;;;;;;;1.15;0.80;;;20.70;53.60;;;;;;5080978;28;20197;-70
2022/05/30 09:13:42;;;;;;;1.40;0.98;;;20.70;53.30;;;;;;5098207;28;20184;-71
2022/05/30 09:16:38;;;;;;;0.77;0.68;;;20.70;53.60;;;;;;5099004;28;20270;-70
2022/05/30 09:19:13;;;;;;;1.58;0.90;;;20.70;53.30;;;;;;5097910;28;20169;-70
2022/05/30 09:21:41;;;;;;;0.95;0.80;;;20.70;53.30;;;;;;5098085;28;20176;-71
2022/05/30 09:24:08;;;;;;;0.70;0.70;;;20.70;53.00;;;;;;5097836;28;20173;-71
2022/05/30 09:26:40;;;;;;;0.98;0.90;;;20.70;53.10;;;;;;5080921;28;20227;-71
2022/05/30 09:29:30;;;;;;;1.20;0.77;;;20.70;52.80;;;;;;5083853;28;20287;-71
2022/05/30 09:32:46;;;;;;;0.70;0.70;;;20.70;53.00;;;;;;5099665;28;20175;-71
2022/05/30 09:35:43;;;;;;;2.58;1.10;;;20.70;53.00;;;;;;5098781;28;20191;-71
2022/05/30 09:38:29;;;;;;;0.88;0.88;;;20.70;53.00;;;;;;5083790;28;20192;-71
2022/05/30 09:41:46;;;;;;;0.73;0.73;;;20.70;52.90;;;;;;5088059;28;20249;-71
2022/05/30 09:44:18;;;;;;;1.77;1.15;;;20.70;52.80;;;;;;5085407;28;20196;-71
2022/05/30 09:46:59;;;;;;;0.88;0.77;;;20.70;52.90;;;;;;5096664;28;20208;-71
2022/05/30 09:49:47;;;;;;;0.80;0.80;;;20.70;52.90;;;;;;5100157;28;20181;-71
2022/05/30 09:52:37;;;;;;;1.88;0.80;;;20.70;52.80;;;;;;5082365;28;20165;-71
2022/05/30 09:55:35;;;;;;;0.70;0.70;;;20.70;52.60;;;;;;5084887;28;20189;-71
2022/05/30 09:58:06;;;;;;;0.98;0.90;;;20.80;52.80;;;;;;5082094;28;20655;-71
2022/05/30 10:00:54;;;;;;;1.75;0.90;;;20.70;52.70;;;;;;5110842;28;20204;-71
2022/05/30 10:03:36;;;;;;;1.65;0.75;;;20.70;52.80;;;;;;5118186;28;20192;-71
2022/05/30 10:06:25;;;;;;;1.50;0.88;;;20.70;52.80;;;;;;5119396;28;20302;-70
2022/05/30 10:09:14;;;;;;;1.42;1.10;;;20.70;52.70;;;;;;5120588;27;20188;-71
2022/05/30 10:11:42;;;;;;;0.82;0.82;;;20.70;52.40;;;;;;5118240;28;20168;-71
2022/05/30 10:14:27;;;;;;;1.00;0.90;;;20.70;52.90;;;;;;5118136;28;20255;-71
2022/05/30 10:17:25;;;;;;;0.98;0.73;;;20.70;52.80;;;;;;5117792;28;20192;-70
2022/05/30 10:19:51;;;;;;;1.13;1.02;;;20.70;52.70;;;;;;5114769;28;20174;-71
2022/05/30 10:28:14;;;;;;;1.95;1.00;;;20.70;52.70;;;;;;5116129;28;20299;-71
2022/05/30 10:30:22;;;;;;;1.65;0.90;;;20.70;52.50;;;;;;5078114;28;20193;-71
2022/05/30 10:33:55;;;;;;;1.13;0.90;;;20.80;52.40;;;;;;5076968;28;20310;-71
2022/05/30 10:37:15;;;;;;;1.23;0.65;;;20.80;52.50;;;;;;4994041;28;20213;-70
2022/05/30 10:40:38;;;;;;;1.40;0.80;;;20.80;52.30;;;;;;5037298;28;20347;-71
2022/05/30 10:43:34;;;;;;;1.88;1.00;;;20.80;52.30;;;;;;5057420;28;20193;-71
2022/05/30 10:46:06;;;;;;;1.45;0.82;;;20.80;52.00;;;;;;5074003;28;20225;-71
2022/05/30 10:48:50;;;;;;;1.00;0.93;;;20.80;51.90;;;;;;5074197;28;20174;-71
2022/05/30 10:51:25;;;;;;;0.88;0.75;;;20.80;51.90;;;;;;5075215;28;20193;-71
2022/05/30 10:54:15;;;;;;;0.98;0.70;;;20.80;51.90;;;;;;5098595;28;20194;-71
2022/05/30 10:57:18;;;;;;;1.38;0.77;;;20.80;51.90;;;;;;5092198;28;20202;-71
2022/05/30 10:59:56;;;;;;;0.70;0.70;;;20.80;51.70;;;;;;5083148;28;20185;-71
2022/05/30 11:02:57;;;;;;;2.13;1.20;;;20.80;51.80;;;;;;5096003;28;20189;-71
2022/05/30 11:06:03;;;;;;;1.33;0.80;;;20.80;51.80;;;;;;5079144;28;20273;-71
2022/05/30 11:08:55;;;;;;;2.05;0.90;;;20.80;51.80;;;;;;5000695;28;20187;-71
2022/05/30 11:12:04;;;;;;;0.80;0.80;;;20.80;51.80;;;;;;5057237;28;20166;-71
2022/05/30 11:15:08;;;;;;;1.75;1.00;;;20.80;51.80;;;;;;5075801;28;20185;-71
2022/05/30 11:18:11;;;;;;;1.23;1.00;;;20.80;51.50;;;;;;5094359;28;20236;-71
2022/05/30 11:21:26;;;;;;;1.35;0.90;;;20.80;51.70;;;;;;5094225;28;20203;-71
2022/05/30 11:23:52;;;;;;;1.67;0.98;;;20.80;51.80;;;;;;5056193;28;20263;-70
2022/05/30 11:27:05;;;;;;;1.00;0.77;;;20.80;51.90;;;;;;5065831;28;20221;-70
2022/05/30 11:29:58;;;;;;;1.20;1.00;;;20.80;51.90;;;;;;5072818;28;20185;-72
2022/05/30 11:32:57;;;;;;;1.00;0.75;;;20.80;52.40;;;;;;5074923;28;20182;-71
2022/05/30 11:35:37;;;;;;;1.25;0.70;;;20.80;51.80;;;;;;5093485;28;20177;-72
2022/05/30 11:38:47;;;;;;;0.93;0.68;;;20.80;51.90;;;;;;5059141;28;20196;-71
2022/05/30 11:41:50;;;;;;;1.48;0.82;;;20.80;51.80;;;;;;5077147;28;20193;-71
2022/05/30 11:45:02;;;;;;;0.98;0.90;;;20.80;51.50;;;;;;5094041;28;20188;-72
2022/05/30 11:47:44;;;;;;;1.90;0.90;;;20.80;51.40;;;;;;5095006;28;20300;-71
2022/05/30 11:50:14;;;;;;;0.80;0.80;;;20.80;51.90;;;;;;5090440;28;20190;-71
2022/05/30 11:53:17;;;;;;;1.02;0.77;;;20.80;51.50;;;;;;5093437;28;20193;-72
2022/05/30 11:56:19;;;;;;;1.00;0.90;;;20.80;51.30;;;;;;5075673;28;20180;-71
2022/05/30 11:59:35;;;;;;;0.93;0.90;;;20.80;51.20;;;;;;5091729;28;20238;-72
2022/05/30 12:02:10;;;;;;;1.02;0.88;;;20.80;51.30;;;;;;5072798;28;20189;-71
2022/05/30 12:05:02;;;;;;;0.80;0.80;;;20.80;51.20;;;;;;5073210;28;20176;-71
2022/05/30 12:07:55;;;;;;;0.75;0.70;;;20.80;51.00;;;;;;5072655;28;20722;-71
2022/05/30 12:10:47;;;;;;;0.95;0.88;;;20.90;51.10;;;;;;5072543;28;20193;-71
2022/05/30 12:13:28;;;;;;;1.17;0.90;;;20.90;51.10;;;;;;5072386;28;20256;-71
2022/05/30 12:16:16;;;;;;;1.20;0.80;;;20.90;51.20;;;;;;5055409;28;20748;-71
2022/05/30 12:24:56;;;;;;;0.98;0.88;;;20.90;51.20;;;;;;5072498;28;20215;-72
2022/05/30 12:27:30;;;;;;;0.93;0.88;;;20.90;51.00;;;;;;5072983;28;20201;-71
2022/05/30 12:30:01;;;;;;;0.90;0.70;;;20.90;50.60;;;;;;5073047;28;20177;-72
2022/05/30 12:32:32;;;;;;;0.93;0.77;;;20.90;50.80;;;;;;5073350;28;20177;-72
2022/05/30 12:35:01;;;;;;;0.93;0.80;;;20.90;50.70;;;;;;5056566;28;20280;-72
2022/05/30 12:37:43;;;;;;;2.78;1.02;;;20.90;50.70;;;;;;5072508;28;20317;-72
2022/05/30 12:40:26;;;;;;;0.63;0.63;;;20.90;51.10;;;;;;5073054;28;20656;-71
2022/05/30 12:43:23;;;;;;;2.55;0.80;;;20.90;50.80;;;;;;5055564;28;20192;-72
2022/05/30 12:45:55;;;;;;;2.13;0.70;;;20.90;51.00;;;;;;5071943;28;20194;-71
2022/05/30 12:48:38;;;;;;;0.93;0.90;;;20.90;50.80;;;;;;5072244;28;20239;-71
2022/05/30 12:51:26;;;;;;;1.20;1.10;;;20.90;51.00;;;;;;5072578;28;20268;-72
2022/05/30 12:53:54;;;;;;;1.10;0.75;;;20.90;50.90;;;;;;5073391;28;20162;-71
2022/05/30 12:56:41;;;;;;;0.98;0.90;;;20.90;51.10;;;;;;5071492;28;20699;-71
2022/05/30 12:59:25;;;;;;;0.80;0.80;;;20.90;50.80;;;;;;5072327;28;20577;-72
2022/05/30 13:01:55;;;;;;;1.42;1.02;;;20.80;50.50;;;;;;5073042;28;20192;-72
2022/05/30 13:04:35;;;;;;;1.95;0.82;;;20.90;50.80;;;;;;5073141;28;20182;-72
2022/05/30 13:07:01;;;;;;;0.82;0.80;;;20.90;51.00;;;;;;5073713;28;20623;-72
2022/05/30 13:09:40;;;;;;;1.38;0.98;;;20.90;51.00;;;;;;5056268;28;20204;-71
2022/05/30 13:12:14;;;;;;;1.92;0.90;;;20.80;51.00;;;;;;5056506;28;20216;-71
2022/05/30 13:15:01;;;;;;;1.90;1.00;;;20.80;50.80;;;;;;5056861;28;20177;-72
2022/05/30 13:18:03;;;;;;;1.45;0.90;;;20.90;50.70;;;;;;5072410;28;20237;-71
2022/05/30 13:20:49;;;;;;;0.95;0.70;;;20.90;50.60;;;;;;5073075;28;20652;-71
2022/05/30 13:23:26;;;;;;;1.55;0.93;;;20.90;51.10;;;;;;5055151;28;20177;-72
2022/05/30 13:25:52;;;;;;;1.27;0.80;;;20.80;50.60;;;;;;5072499;28;20193;-71
2022/05/30 13:28:41;;;;;;;0.65;0.63;;;20.90;50.90;;;;;;5072233;28;20174;-72
2022/05/30 13:31:10;;;;;;;1.08;0.75;;;20.90;51.00;;;;;;5073830;28;20261;-72
2022/05/30 13:33:52;;;;;;;0.70;0.70;;;20.90;50.60;;;;;;5073465;28;20182;-71
2022/05/30 13:36:29;;;;;;;1.08;0.93;;;20.90;50.30;;;;;;5071786;28;20284;-71
2022/05/30 13:38:56;;;;;;;0.63;0.63;;;20.90;50.70;;;;;;5055443;28;20189;-72
2022/05/30 13:41:48;;;;;;;2.17;0.80;;;20.90;50.70;;;;;;5072831;28;20700;-71
2022/05/30 13:44:22;;;;;;;0.73;0.73;;;20.90;50.60;;;;;;5070108;28;20212;-72
2022/05/30 13:46:56;;;;;;;1.13;0.70;;;20.90;51.00;;;;;;5055029;28;20709;-72
2022/05/30 13:49:41;;;;;;;0.80;0.80;;;20.90;50.60;;;;;;5054854;28;20180;-72
2022/05/30 13:52:17;;;;;;;1.17;0.90;;;20.90;50.70;;;;;;5073321;28;20190;-72
2022/05/30 13:54:48;;;;;;;0.88;0.80;;;20.90;50.50;;;;;;5074573;28;20176;-71
2022/05/30 13:57:14;;;;;;;1.05;0.80;;;20.90;50.50;;;;;;5058406;28;20201;-72
2022/05/30 13:59:50;;;;;;;2.17;0.80;;;20.90;50.40;;;;;;5059298;28;20255;-71
2022/05/30 14:02:30;;;;;;;1.52;0.68;;;20.80;50.40;;;;;;5075724;28;20217;-72
2022/05/30 14:05:08;;;;;;;2.65;1.02;;;20.90;50.40;;;;;;5076399;28;20184;-71
2022/05/30 14:07:49;;;;;;;0.95;0.85;;;20.80;50.70;;;;;;5074730;28;20212;-72
2022/05/30 14:10:24;;;;;;;0.80;0.80;;;20.90;50.60;;;;;;5074943;28;20178;-71